Time;durP1;ratioP1;P1;durP2;ratioP2;P2;SDS_P1;SDS_P2;PMS_P1;PMS_P2;Temp;Humidity;BMP_temperature;BMP_pressure;BME280_temperature;BME280_humidity;BME280_pressure;Samples;Min_cycle;Max_cycle;Signal;HPM_P1;HPM_P2
2022/01/19 00:01:41;;;;;;;6.85;3.47;;;-7.90;91.00;-8.80;98472.00;;;;5022160;28;82422;-55
2022/01/19 00:04:07;;;;;;;5.32;3.10;;;-8.00;91.00;-8.80;98477.00;;;;5024404;28;82091;-56
2022/01/19 00:06:33;;;;;;;5.68;3.25;;;-8.00;90.90;-8.80;98469.00;;;;5024099;28;82570;-55
2022/01/19 00:09:00;;;;;;;5.97;3.17;;;-8.00;91.00;-8.80;98465.00;;;;5023827;28;83381;-57
2022/01/19 00:11:26;;;;;;;6.72;3.60;;;-7.90;91.00;-8.80;98450.00;;;;5024840;28;82105;-59
2022/01/19 00:13:52;;;;;;;6.95;3.50;;;-8.00;91.00;-8.80;98478.00;;;;5024333;28;82251;-56
2022/01/19 00:16:20;;;;;;;6.13;3.40;;;-8.00;90.90;-8.80;98461.00;;;;5015848;28;82508;-53
2022/01/19 00:18:47;;;;;;;7.28;3.50;;;-8.00;90.90;-8.80;98450.00;;;;5014880;28;83430;-59
2022/01/19 00:21:13;;;;;;;5.68;3.45;;;-8.00;90.90;-8.80;98451.00;;;;5039612;28;83244;-58
2022/01/19 00:23:40;;;;;;;5.47;3.20;;;-7.90;91.00;-8.80;98450.00;;;;5023618;28;82401;-59
2022/01/19 00:26:06;;;;;;;5.68;3.40;;;-7.90;91.00;-8.80;98460.00;;;;5023105;28;83598;-57
2022/01/19 00:28:33;;;;;;;6.85;3.65;;;-7.90;90.90;-8.80;98438.00;;;;5023421;28;82065;-58
2022/01/19 00:31:00;;;;;;;6.65;3.38;;;-7.90;91.00;-8.80;98446.00;;;;5024382;28;81921;-57
2022/01/19 00:33:26;;;;;;;4.65;3.00;;;-7.90;91.10;-8.80;98450.00;;;;5022948;28;82313;-58
2022/01/19 00:35:52;;;;;;;5.95;3.97;;;-7.90;91.10;-8.70;98463.00;;;;5023368;28;83537;-58
2022/01/19 00:38:19;;;;;;;5.68;3.22;;;-7.80;91.20;-8.70;98447.00;;;;5023940;28;82256;-59
2022/01/19 00:40:47;;;;;;;5.18;3.50;;;-7.80;91.10;-8.70;98445.00;;;;5024792;28;81958;-59
2022/01/19 00:43:15;;;;;;;6.05;3.78;;;-7.80;91.60;-8.60;98451.00;;;;5024164;28;82309;-57
2022/01/19 00:45:42;;;;;;;6.68;3.60;;;-7.80;91.20;-8.60;98441.00;;;;5038823;28;84305;-55
2022/01/19 00:48:09;;;;;;;5.90;3.75;;;-7.80;91.20;-8.60;98441.00;;;;5021047;28;84286;-57
2022/01/19 00:50:35;;;;;;;6.88;3.70;;;-7.80;91.30;-8.60;98441.00;;;;5023504;28;81965;-58
2022/01/19 00:53:01;;;;;;;6.25;3.67;;;-7.80;91.30;-8.60;98450.00;;;;5022919;28;83375;-58
2022/01/19 00:55:28;;;;;;;5.63;3.92;;;-7.80;91.30;-8.60;98449.00;;;;5023595;28;82535;-58
2022/01/19 00:57:55;;;;;;;6.97;3.67;;;-7.80;91.30;-8.60;98448.00;;;;5024059;28;82256;-58
2022/01/19 01:00:25;;;;;;;8.95;4.32;;;-7.80;91.30;-8.60;98438.00;;;;5018291;28;81965;-59
2022/01/19 01:02:52;;;;;;;8.18;3.60;;;-7.80;91.40;-8.60;98439.00;;;;5023971;28;82332;-58
2022/01/19 01:05:18;;;;;;;6.20;4.13;;;-7.70;91.50;-8.60;98443.00;;;;5023456;28;82425;-57
2022/01/19 01:07:45;;;;;;;7.78;4.07;;;-7.70;91.50;-8.60;98434.00;;;;5023104;28;82341;-59
2022/01/19 01:10:15;;;;;;;6.88;3.80;;;-7.70;91.40;-8.60;98433.00;;;;5039260;28;82801;-58
2022/01/19 01:15:28;;;;;;;4.85;3.50;;;-7.80;91.50;-8.60;98434.00;;;;5021664;28;82784;-54
2022/01/19 01:20:33;;;;;;;8.07;4.25;;;-7.70;91.60;-8.60;98432.00;;;;5026259;28;82020;-57
2022/01/19 01:23:00;;;;;;;5.95;3.85;;;-7.70;91.60;-8.60;98440.00;;;;5026485;28;83275;-57
2022/01/19 01:25:27;;;;;;;7.72;4.55;;;-7.70;91.60;-8.60;98445.00;;;;5025682;28;83757;-56
2022/01/19 01:27:53;;;;;;;6.38;3.92;;;-7.70;91.60;-8.60;98435.00;;;;5026596;28;82349;-57
2022/01/19 01:30:20;;;;;;;7.18;4.60;;;-7.70;91.70;-8.60;98433.00;;;;5043026;28;81900;-54
2022/01/19 01:32:47;;;;;;;7.22;4.20;;;-7.70;91.80;-8.60;98432.00;;;;5042368;28;83247;-52
2022/01/19 01:35:14;;;;;;;10.18;4.40;;;-7.70;91.70;-8.60;98430.00;;;;5041499;28;83412;-57
2022/01/19 01:37:40;;;;;;;6.90;4.32;;;-7.70;91.80;-8.60;98440.00;;;;5041910;28;83214;-57
2022/01/19 01:40:09;;;;;;;6.18;3.92;;;-7.70;91.80;-8.50;98429.00;;;;5025799;28;81839;-55
2022/01/19 01:42:36;;;;;;;7.00;4.40;;;-7.60;91.70;-8.50;98449.00;;;;5025739;28;82117;-57
2022/01/19 01:45:04;;;;;;;7.25;4.47;;;-7.60;91.60;-8.50;98433.00;;;;5042248;28;82498;-53
2022/01/19 01:47:33;;;;;;;8.20;4.03;;;-7.70;91.50;-8.60;98445.00;;;;5025789;28;82373;-56
2022/01/19 01:55:21;;;;;;;6.95;4.13;;;-7.70;91.30;-8.60;98441.00;;;;5022067;28;82250;-54
2022/01/19 01:57:49;;;;;;;7.40;3.90;;;-7.70;91.30;-8.70;98444.00;;;;5042418;28;82426;-54
2022/01/19 02:00:23;;;;;;;6.40;4.10;;;-7.80;91.20;-8.70;98423.00;;;;5041049;28;82903;-56
2022/01/19 02:02:52;;;;;;;5.13;3.60;;;-7.80;91.30;-8.70;98424.00;;;;5026711;28;82216;-57
2022/01/19 02:05:22;;;;;;;7.20;3.67;;;-7.80;91.40;-8.70;98424.00;;;;5026298;28;82648;-53
2022/01/19 02:08:05;;;;;;;5.28;3.67;;;-7.80;91.40;-8.70;98432.00;;;;5024761;28;82222;-56
2022/01/19 02:10:44;;;;;;;5.63;3.33;;;-7.80;91.40;-8.60;98445.00;;;;5024658;28;82532;-56
2022/01/19 02:24:19;;;;;;;6.60;3.67;;;-7.80;91.40;-8.70;98442.00;;;;5023587;28;82258;-55
2022/01/19 02:27:14;;;;;;;6.30;3.35;;;-7.90;91.30;-8.80;98448.00;;;;5023760;28;84903;-53
2022/01/19 02:30:00;;;;;;;5.28;3.38;;;-7.90;91.20;-8.80;98458.00;;;;5023315;28;83540;-57
2022/01/19 02:40:44;;;;;;;5.40;3.38;;;-8.00;91.50;-8.80;98484.00;;;;5023351;28;82393;-53
2022/01/19 02:43:20;;;;;;;6.45;3.20;;;-7.90;91.60;-8.80;98490.00;;;;5025231;28;82144;-57
2022/01/19 02:51:29;;;;;;;9.18;4.68;;;-7.90;91.60;-8.70;98490.00;;;;5016435;28;82612;-57
2022/01/19 02:53:56;;;;;;;7.13;3.90;;;-7.90;91.50;-8.80;98485.00;;;;5039969;28;83193;-55
2022/01/19 02:56:30;;;;;;;6.75;3.67;;;-7.90;91.60;-8.80;98477.00;;;;5024194;28;83452;-54
2022/01/19 02:59:09;;;;;;;7.63;3.78;;;-7.90;91.60;-8.70;98486.00;;;;5040623;28;82763;-55
2022/01/19 03:09:42;;;;;;;6.15;3.33;;;-7.90;91.30;-8.80;98502.00;;;;5024767;28;83650;-57
2022/01/19 03:12:09;;;;;;;4.65;3.15;;;-7.90;91.20;-8.80;98512.00;;;;5024030;28;82498;-56
2022/01/19 03:14:37;;;;;;;6.82;3.33;;;-7.90;91.10;-8.80;98497.00;;;;5023460;28;82327;-56
2022/01/19 03:17:05;;;;;;;5.82;3.30;;;-8.00;91.20;-8.80;98497.00;;;;5040055;28;83458;-57
2022/01/19 03:19:33;;;;;;;4.60;2.70;;;-8.00;91.20;-8.80;98491.00;;;;5039492;28;83668;-56
2022/01/19 03:22:00;;;;;;;4.70;3.10;;;-8.00;91.20;-8.80;98476.00;;;;5023109;28;83812;-58
2022/01/19 03:24:26;;;;;;;5.07;2.90;;;-7.90;91.20;-8.80;98475.00;;;;5023894;28;82250;-56
2022/01/19 03:26:52;;;;;;;4.97;2.78;;;-7.90;91.20;-8.90;98485.00;;;;5023129;28;82129;-57
2022/01/19 03:29:22;;;;;;;6.30;3.05;;;-8.00;91.00;-8.80;98468.00;;;;5039198;28;82533;-56
2022/01/19 03:31:49;;;;;;;7.03;3.53;;;-8.00;91.20;-8.80;98480.00;;;;5039677;28;82470;-57
2022/01/19 03:34:16;;;;;;;5.65;3.47;;;-8.00;91.40;-8.80;98472.00;;;;5023753;28;81955;-57
2022/01/19 03:36:44;;;;;;;7.13;3.50;;;-7.90;91.50;-8.80;98466.00;;;;5022931;28;82300;-57
2022/01/19 03:39:13;;;;;;;4.90;3.20;;;-7.90;91.50;-8.80;98468.00;;;;5039630;28;82733;-56
2022/01/19 03:41:39;;;;;;;4.57;3.10;;;-7.90;91.60;-8.80;98463.00;;;;5022359;28;82371;-56
2022/01/19 03:44:05;;;;;;;4.72;3.45;;;-7.90;91.50;-8.80;98470.00;;;;5022645;28;82971;-53
2022/01/19 03:46:34;;;;;;;4.72;3.00;;;-7.90;91.50;-8.90;98474.00;;;;5022709;28;83249;-56
2022/01/19 03:49:10;;;;;;;4.95;2.80;;;-8.00;91.50;-8.90;98474.00;;;;5022405;28;82560;-57
2022/01/19 03:51:37;;;;;;;5.60;2.95;;;-8.10;91.60;-8.90;98475.00;;;;5038659;28;83119;-56
2022/01/19 03:54:04;;;;;;;5.47;2.97;;;-8.10;91.70;-8.90;98474.00;;;;5023655;28;81907;-55
2022/01/19 03:56:30;;;;;;;7.18;3.10;;;-8.10;91.80;-8.90;98475.00;;;;5023475;28;82292;-55
2022/01/19 03:58:57;;;;;;;7.55;3.55;;;-8.00;91.90;-8.90;98466.00;;;;5022045;28;84709;-57
2022/01/19 04:01:23;;;;;;;7.47;3.90;;;-8.10;91.80;-8.90;98480.00;;;;5023808;28;82626;-58
2022/01/19 04:04:29;;;;;;;7.32;3.15;;;-8.10;92.30;-8.90;98471.00;;;;5023705;28;81910;-58
2022/01/19 04:06:56;;;;;;;6.35;3.30;;;-8.10;92.00;-9.00;98478.00;;;;5021948;28;82320;-58
2022/01/19 04:09:23;;;;;;;7.90;4.10;;;-8.10;92.10;-8.90;98475.00;;;;5018795;28;83421;-57
2022/01/19 04:11:51;;;;;;;5.45;4.07;;;-8.10;92.10;-8.90;98485.00;;;;5023107;28;83488;-58
2022/01/19 04:14:25;;;;;;;4.93;3.20;;;-8.00;92.10;-8.90;98482.00;;;;5022485;28;82202;-58
2022/01/19 04:16:56;;;;;;;6.43;3.67;;;-8.00;92.10;-9.00;98476.00;;;;5006414;28;83259;-59
2022/01/19 04:19:28;;;;;;;8.80;3.72;;;-8.00;92.30;-9.00;98504.00;;;;5021449;28;82665;-59
2022/01/19 04:22:21;;;;;;;6.60;3.97;;;-8.10;92.60;-9.00;98493.00;;;;5009672;28;82000;-58
2022/01/19 04:24:50;;;;;;;6.93;3.80;;;-8.00;92.20;-9.00;98493.00;;;;5038218;28;82563;-59
2022/01/19 04:30:13;;;;;;;5.60;3.45;;;-8.10;92.30;-9.10;98495.00;;;;5022609;28;83128;-58
2022/01/19 04:33:11;;;;;;;7.05;3.78;;;-8.20;92.40;-9.10;98497.00;;;;5022329;28;82305;-59
2022/01/19 04:35:46;;;;;;;9.13;4.45;;;-8.20;92.40;-9.20;98504.00;;;;5020716;28;83552;-60
2022/01/19 05:01:35;;;;;;;7.43;3.97;;;-8.30;92.30;-9.20;98511.00;;;;5025698;28;82277;-57
2022/01/19 05:03:41;;;;;;;11.85;5.32;;;-8.30;92.60;-9.30;98499.00;;;;5005299;28;83250;-60
2022/01/19 05:06:16;;;;;;;7.53;4.55;;;-8.30;92.90;-9.30;98494.00;;;;5025980;28;82245;-55
2022/01/19 05:08:54;;;;;;;9.65;4.95;;;-8.30;92.70;-9.30;98485.00;;;;5024897;28;82011;-55
2022/01/19 05:14:06;;;;;;;6.25;5.30;;;-8.40;92.70;-9.30;98487.00;;;;5008048;28;83669;-60
2022/01/19 05:16:34;;;;;;;8.55;5.63;;;-8.30;92.90;-9.30;98484.00;;;;5039707;28;82417;-60
2022/01/19 05:19:00;;;;;;;10.02;5.95;;;-8.30;92.90;-9.30;98478.00;;;;5024908;28;81852;-58
2022/01/19 05:21:27;;;;;;;9.88;5.88;;;-8.40;92.70;-9.40;98471.00;;;;5041247;28;82508;-57
2022/01/19 05:24:18;;;;;;;;;;;-8.40;92.80;-9.40;98475.00;;;;5038804;28;82955;-59
2022/01/19 05:27:04;;;;;;;9.80;7.15;;;-8.50;92.90;-9.50;98467.00;;;;5041472;28;82922;-58
2022/01/19 05:29:35;;;;;;;12.45;8.77;;;-8.60;93.10;-9.60;98460.00;;;;5024562;28;83404;-59
2022/01/19 05:32:01;;;;;;;12.23;8.85;;;-8.60;93.30;-9.70;98458.00;;;;5041375;28;81993;-56
2022/01/19 05:34:27;;;;;;;9.48;7.95;;;-8.80;93.40;-9.80;98451.00;;;;5023991;28;83513;-58
2022/01/19 05:37:22;;;;;;;10.27;8.05;;;-8.70;93.60;-9.80;98452.00;;;;5015837;28;82129;-58
2022/01/19 05:40:14;;;;;;;9.02;6.68;;;-8.80;93.70;-9.90;98452.00;;;;4995779;28;82072;-60
2022/01/19 05:42:59;;;;;;;8.25;6.20;;;-8.90;93.80;-9.90;98443.00;;;;5024499;28;83500;-58
2022/01/19 05:45:26;;;;;;;9.13;6.05;;;-8.90;93.90;-9.90;98447.00;;;;5023938;28;82468;-57
2022/01/19 05:47:53;;;;;;;7.80;6.05;;;-8.90;94.00;-9.90;98444.00;;;;5041219;28;82083;-58
2022/01/19 05:50:20;;;;;;;7.72;6.05;;;-8.90;94.10;-9.90;98445.00;;;;5040947;28;82691;-58
2022/01/19 05:53:00;;;;;;;7.95;5.25;;;-8.90;94.10;-9.80;98437.00;;;;5008426;28;84472;-56
2022/01/19 05:55:26;;;;;;;8.50;5.88;;;-8.90;94.10;-9.80;98450.00;;;;5006775;28;85941;-57
2022/01/19 05:57:52;;;;;;;9.45;6.53;;;-8.90;94.50;-9.80;98450.00;;;;5023886;28;83361;-57
2022/01/19 06:00:19;;;;;;;9.95;7.40;;;-8.80;94.10;-9.80;98460.00;;;;5040639;28;82149;-58
2022/01/19 06:02:49;;;;;;;10.30;7.57;;;-8.80;94.10;-9.80;98458.00;;;;5025160;28;83641;-57
2022/01/19 06:05:19;;;;;;;12.82;7.53;;;-8.80;94.10;-9.80;98459.00;;;;5023651;28;82248;-56
2022/01/19 06:11:02;;;;;;;11.02;7.70;;;-8.90;94.20;-9.90;98444.00;;;;4969990;28;82137;-56
2022/01/19 06:13:28;;;;;;;10.15;6.95;;;-8.90;94.30;-9.80;98446.00;;;;4964095;28;82363;-58
2022/01/19 06:15:54;;;;;;;9.00;7.15;;;-8.90;94.30;-9.80;98452.00;;;;5010006;28;82024;-58
2022/01/19 06:18:21;;;;;;;10.73;6.75;;;-8.90;94.30;-9.80;98446.00;;;;5006653;28;83563;-57
2022/01/19 06:20:49;;;;;;;8.60;6.22;;;-8.90;94.40;-9.80;98455.00;;;;5022862;28;82994;-58
2022/01/19 06:23:21;;;;;;;8.98;5.90;;;-8.80;94.40;-9.80;98454.00;;;;5040193;28;83366;-56
2022/01/19 06:26:04;;;;;;;8.23;5.72;;;-8.80;94.30;-9.80;98457.00;;;;5037629;28;82571;-57
2022/01/19 06:28:31;;;;;;;8.55;5.53;;;-8.80;94.20;-9.70;98447.00;;;;5006295;28;82405;-58
2022/01/19 06:30:58;;;;;;;11.10;5.95;;;-8.80;94.20;-9.70;98455.00;;;;5040129;28;82012;-59
2022/01/19 06:33:24;;;;;;;8.98;5.70;;;-8.70;94.10;-9.70;98457.00;;;;5020715;28;82786;-55
2022/01/19 06:35:52;;;;;;;6.82;5.30;;;-8.70;94.00;-9.70;98464.00;;;;5021627;28;82728;-59
2022/01/19 06:38:34;;;;;;;9.25;6.20;;;-8.70;94.20;-9.70;98442.00;;;;5024797;28;82479;-60
2022/01/19 06:41:05;;;;;;;8.35;6.13;;;-8.70;93.90;-9.60;98457.00;;;;5016753;28;82029;-58
2022/01/19 06:43:34;;;;;;;9.90;6.43;;;-8.70;93.90;-9.70;98449.00;;;;5040253;28;83022;-58
2022/01/19 06:46:01;;;;;;;9.05;6.30;;;-8.70;94.00;-9.70;98451.00;;;;5023648;28;83450;-58
2022/01/19 06:48:27;;;;;;;8.60;5.57;;;-8.70;94.00;-9.60;98451.00;;;;5022789;28;83135;-58
2022/01/19 06:50:54;;;;;;;7.97;5.25;;;-8.70;94.10;-9.60;98452.00;;;;5038837;28;82637;-57
2022/01/19 06:53:28;;;;;;;9.02;5.70;;;-8.70;94.50;-9.50;98440.00;;;;5039282;28;84409;-59
2022/01/19 06:56:06;;;;;;;7.13;4.97;;;-8.60;94.10;-9.50;98451.00;;;;5022955;28;83431;-59
2022/01/19 06:58:32;;;;;;;6.30;4.93;;;-8.70;94.00;-9.60;98453.00;;;;5039895;28;82439;-58
2022/01/19 07:01:20;;;;;;;8.55;5.60;;;-8.70;94.00;-9.60;98450.00;;;;5040004;28;81907;-57
2022/01/19 07:04:11;;;;;;;8.10;5.45;;;-8.80;94.10;-9.60;98447.00;;;;5040006;28;83386;-58
2022/01/19 07:06:37;;;;;;;9.10;5.40;;;-8.70;94.30;-9.50;98435.00;;;;5039525;28;83051;-58
2022/01/19 07:09:12;;;;;;;10.27;6.47;;;-8.60;94.10;-9.50;98442.00;;;;5023730;28;84221;-59
2022/01/19 07:11:44;;;;;;;;;;;-8.60;93.90;-9.40;98443.00;;;;5023410;28;82870;-58
2022/01/19 07:14:12;;;;;;;9.75;6.35;;;-8.60;93.80;-9.50;98431.00;;;;5025025;28;82222;-58
2022/01/19 07:16:39;;;;;;;8.93;6.32;;;-8.70;93.80;-9.50;98428.00;;;;5022586;28;83482;-57
2022/01/19 07:19:06;;;;;;;10.85;6.40;;;-8.60;93.90;-9.50;98428.00;;;;5023018;28;82430;-58
2022/01/19 07:21:32;;;;;;;10.07;7.30;;;-8.60;93.90;-9.40;98433.00;;;;5040044;28;82053;-57
2022/01/19 07:23:59;;;;;;;9.32;6.80;;;-8.50;93.80;-9.40;98440.00;;;;5022509;28;82594;-57
2022/01/19 07:26:26;;;;;;;11.48;7.28;;;-8.50;93.60;-9.30;98438.00;;;;5039373;28;81956;-59
2022/01/19 07:28:53;;;;;;;8.57;5.95;;;-8.50;93.50;-9.30;98437.00;;;;5039195;28;82531;-58
2022/01/19 07:31:19;;;;;;;9.27;7.30;;;-8.40;93.40;-9.20;98430.00;;;;5022840;28;82474;-57
2022/01/19 07:33:46;;;;;;;11.32;6.82;;;-8.30;93.30;-9.20;98417.00;;;;5039543;28;82206;-59
2022/01/19 07:36:12;;;;;;;9.32;6.93;;;-8.30;93.20;-9.20;98421.00;;;;5038674;28;83739;-58
2022/01/19 07:38:38;;;;;;;10.45;7.63;;;-8.30;93.10;-9.20;98411.00;;;;5022185;28;85673;-58
2022/01/19 07:41:05;;;;;;;11.32;7.45;;;-8.30;93.20;-9.20;98422.00;;;;5022472;28;82897;-58
2022/01/19 07:43:37;;;;;;;10.20;7.45;;;-8.40;93.20;-9.20;98412.00;;;;5035550;28;83494;-58
2022/01/19 07:46:29;;;;;;;11.23;7.55;;;-8.40;93.40;-9.20;98404.00;;;;5004149;28;83661;-58
2022/01/19 07:49:15;;;;;;;10.75;7.22;;;-8.30;93.60;-9.20;98402.00;;;;5038482;28;82388;-58
2022/01/19 07:51:55;;;;;;;8.98;6.82;;;-8.30;93.40;-9.00;98395.00;;;;5038497;28;82580;-57
2022/01/19 07:54:39;;;;;;;11.27;7.47;;;-8.20;93.50;-8.90;98410.00;;;;5023024;28;82391;-57
2022/01/19 07:57:40;;;;;;;10.45;6.90;;;-8.10;93.30;-8.90;98384.00;;;;5022015;28;82682;-59
2022/01/19 08:00:29;;;;;;;12.00;7.10;;;-8.10;93.10;-8.80;98390.00;;;;5031229;28;81994;-58
2022/01/19 08:03:02;;;;;;;11.70;7.68;;;-8.00;93.20;-8.80;98380.00;;;;5022036;28;82942;-57
2022/01/19 08:05:49;;;;;;;12.75;8.05;;;-8.00;93.10;-8.90;98379.00;;;;5022458;28;82572;-58
2022/01/19 08:08:15;;;;;;;10.10;7.45;;;-8.00;93.30;-8.90;98372.00;;;;5022073;28;82856;-58
2022/01/19 08:10:42;;;;;;;10.40;6.85;;;-8.10;92.90;-8.90;98372.00;;;;5036456;28;82718;-57
2022/01/19 08:13:10;;;;;;;13.63;6.82;;;-8.00;93.00;-8.90;98377.00;;;;5022644;28;82309;-58
2022/01/19 08:15:36;;;;;;;12.18;7.43;;;-8.00;92.90;-8.90;98374.00;;;;5038830;28;82339;-59
2022/01/19 08:18:05;;;;;;;11.93;6.45;;;-8.10;93.00;-8.90;98370.00;;;;5022119;28;83535;-58
2022/01/19 08:20:32;;;;;;;10.63;7.20;;;-8.10;92.90;-8.90;98363.00;;;;5004640;28;83678;-58
2022/01/19 08:22:58;;;;;;;10.20;7.05;;;-8.10;92.80;-8.90;98363.00;;;;5038863;28;82164;-59
2022/01/19 08:25:28;;;;;;;10.30;7.40;;;-8.10;93.00;-8.90;98365.00;;;;5034750;28;82557;-58
2022/01/19 08:27:54;;;;;;;11.02;7.65;;;-8.10;93.00;-8.90;98371.00;;;;5016906;28;83425;-57
2022/01/19 08:30:30;;;;;;;11.88;7.53;;;-8.00;92.90;-8.90;98361.00;;;;5038214;28;82983;-56
2022/01/19 08:32:57;;;;;;;9.57;7.05;;;-8.00;92.80;-8.90;98374.00;;;;5038648;28;82243;-58
2022/01/19 08:35:38;;;;;;;10.50;7.40;;;-8.00;92.70;-8.90;98375.00;;;;5038698;28;82388;-58
2022/01/19 08:38:08;;;;;;;13.15;8.43;;;-8.10;92.60;-8.90;98375.00;;;;5022484;28;82502;-59
2022/01/19 08:40:44;;;;;;;10.32;8.30;;;-8.10;92.80;-8.80;98372.00;;;;5021408;28;82628;-59
2022/01/19 08:43:16;;;;;;;10.15;7.55;;;-8.00;92.80;-8.80;98371.00;;;;5039076;28;82389;-58
2022/01/19 08:45:44;;;;;;;12.48;8.18;;;-7.90;92.70;-8.70;98365.00;;;;5038620;28;82241;-58
2022/01/19 08:48:12;;;;;;;11.38;6.68;;;-7.80;92.70;-8.60;98367.00;;;;5021234;28;83744;-58
2022/01/19 08:51:05;;;;;;;11.50;6.90;;;-7.70;92.60;-8.50;98353.00;;;;5020162;28;83454;-57
2022/01/19 08:53:53;;;;;;;9.70;6.53;;;-7.60;92.20;-8.40;98357.00;;;;5021369;28;82948;-58
2022/01/19 08:56:33;;;;;;;9.90;6.50;;;-7.50;92.10;-8.40;98354.00;;;;5034681;28;84603;-58
2022/01/19 08:59:00;;;;;;;9.50;6.68;;;-7.50;91.80;-8.40;98343.00;;;;5013671;28;82858;-56
2022/01/19 09:01:26;;;;;;;9.35;6.68;;;-7.50;91.80;-8.40;98338.00;;;;5021843;28;82225;-56
2022/01/19 09:03:52;;;;;;;13.55;7.25;;;-7.50;91.80;-8.30;98334.00;;;;5022693;28;81876;-59
2022/01/19 09:06:20;;;;;;;8.73;6.03;;;-7.40;91.70;-8.30;98346.00;;;;5022311;28;82351;-59
2022/01/19 09:08:47;;;;;;;8.80;5.68;;;-7.40;91.60;-8.10;98348.00;;;;5022294;28;81875;-56
2022/01/19 09:11:13;;;;;;;8.27;5.50;;;-7.30;91.50;-8.00;98332.00;;;;5021323;28;83278;-59
2022/01/19 09:13:40;;;;;;;11.90;6.20;;;-7.20;91.20;-7.90;98332.00;;;;5038424;28;82174;-58
2022/01/19 09:16:06;;;;;;;8.55;5.40;;;-7.10;91.20;-7.80;98335.00;;;;5020962;28;84158;-58
2022/01/19 09:18:33;;;;;;;7.70;5.63;;;-7.00;90.70;-7.80;98326.00;;;;5021518;28;83325;-59
2022/01/19 09:20:59;;;;;;;8.65;5.60;;;-6.80;90.80;-7.70;98325.00;;;;5020688;28;84277;-58
2022/01/19 09:23:25;;;;;;;12.30;6.47;;;-6.80;90.60;-7.60;98330.00;;;;5022255;28;81968;-58
2022/01/19 09:25:51;;;;;;;8.43;5.72;;;-6.70;90.50;-7.50;98330.00;;;;5020722;28;82340;-60
2022/01/19 09:28:18;;;;;;;10.88;6.38;;;-6.50;90.40;-7.40;98335.00;;;;5022005;28;82666;-56
2022/01/19 09:30:45;;;;;;;8.13;5.35;;;-6.50;90.00;-7.30;98326.00;;;;5022138;28;82558;-58
2022/01/19 09:33:19;;;;;;;8.07;5.38;;;-6.50;89.20;-7.20;98333.00;;;;5021772;28;81821;-57
2022/01/19 09:38:37;;;;;;;9.25;5.43;;;-6.40;88.80;-7.00;98327.00;;;;5022154;28;83317;-58
2022/01/19 09:41:08;;;;;;;9.55;6.30;;;-6.20;88.50;-6.90;98320.00;;;;5024166;28;82814;-58
2022/01/19 09:43:35;;;;;;;9.53;6.10;;;-6.10;87.60;-6.90;98330.00;;;;5025114;28;82829;-58
2022/01/19 09:46:03;;;;;;;8.98;6.10;;;-6.10;87.50;-6.80;98319.00;;;;5024625;28;82360;-58
2022/01/19 09:48:29;;;;;;;8.38;5.57;;;-6.00;87.30;-6.80;98320.00;;;;5025051;28;82969;-58
2022/01/19 09:50:57;;;;;;;8.10;5.45;;;-6.00;86.50;-6.70;98320.00;;;;5024189;28;82399;-58
2022/01/19 09:53:24;;;;;;;9.48;5.90;;;-5.90;86.90;-6.70;98316.00;;;;5021671;28;82161;-58
2022/01/19 09:55:50;;;;;;;9.10;5.80;;;-5.90;87.10;-6.60;98311.00;;;;5023951;28;82205;-59
2022/01/19 09:58:18;;;;;;;8.73;5.40;;;-5.80;87.10;-6.60;98318.00;;;;5024328;28;83384;-58
2022/01/19 10:00:45;;;;;;;8.82;6.03;;;-5.90;86.50;-6.60;98327.00;;;;5006660;28;82445;-58
2022/01/19 10:03:25;;;;;;;7.75;5.57;;;-5.80;86.70;-6.60;98330.00;;;;5025181;28;81892;-56
2022/01/19 10:06:12;;;;;;;7.53;5.53;;;-5.90;86.50;-6.60;98332.00;;;;5024161;28;82803;-58
2022/01/19 10:08:55;;;;;;;7.22;5.35;;;-5.90;86.40;-6.50;98331.00;;;;5015901;28;83236;-56
2022/01/19 10:17:04;;;;;;;6.30;4.43;;;-5.40;85.50;-6.00;98328.00;;;;5015424;28;82413;-60
2022/01/19 10:19:49;;;;;;;7.60;4.75;;;-5.30;85.10;-5.90;98320.00;;;;5021152;28;82869;-60
2022/01/19 10:22:22;;;;;;;6.90;4.20;;;-5.20;84.50;-5.70;98326.00;;;;5024500;28;82244;-58
2022/01/19 10:24:57;;;;;;;6.18;4.03;;;-5.00;83.40;-5.70;98321.00;;;;5024322;28;81952;-57
2022/01/19 10:27:45;;;;;;;6.80;4.68;;;-5.00;83.30;-5.60;98312.00;;;;5022948;28;82339;-57
2022/01/19 10:30:11;;;;;;;6.53;4.38;;;-4.90;83.20;-5.60;98312.00;;;;5020254;28;83395;-59
2022/01/19 10:33:02;;;;;;;6.85;4.15;;;-5.00;82.90;-5.60;98317.00;;;;5024146;28;83550;-58
2022/01/19 10:35:37;;;;;;;6.20;3.90;;;-4.90;82.80;-5.60;98317.00;;;;5023150;28;83452;-60
2022/01/19 10:38:27;;;;;;;7.78;4.68;;;-4.90;82.30;-5.50;98311.00;;;;5024312;28;82249;-59
2022/01/19 10:40:59;;;;;;;9.43;5.40;;;-4.80;82.90;-5.40;98313.00;;;;5016880;28;82502;-59
2022/01/19 10:43:41;;;;;;;7.13;5.05;;;-4.60;82.80;-5.40;98309.00;;;;5024053;28;83417;-59
2022/01/19 10:46:16;;;;;;;6.88;4.97;;;-4.70;82.10;-5.20;98314.00;;;;5024562;28;81997;-59
2022/01/19 10:48:43;;;;;;;8.85;5.20;;;-4.50;82.40;-5.00;98295.00;;;;5023967;28;83491;-57
2022/01/19 10:51:20;;;;;;;8.70;5.15;;;-4.30;82.30;-4.90;98288.00;;;;5021011;28;82689;-58
2022/01/19 10:54:11;;;;;;;7.30;4.53;;;-4.20;81.10;-4.90;98297.00;;;;5023183;28;82310;-58
2022/01/19 10:56:39;;;;;;;7.78;5.28;;;-4.10;80.60;-4.90;98287.00;;;;5024179;28;81907;-57
2022/01/19 10:59:15;;;;;;;7.13;5.10;;;-4.20;81.10;-4.90;98300.00;;;;5023284;28;83826;-58
2022/01/19 11:01:49;;;;;;;7.72;5.45;;;-4.20;81.40;-4.90;98287.00;;;;5023883;28;83633;-58
2022/01/19 11:04:42;;;;;;;7.90;5.88;;;-4.30;81.60;-5.00;98291.00;;;;5023716;28;82503;-58
2022/01/19 11:07:15;;;;;;;7.85;5.45;;;-4.30;81.90;-5.10;98290.00;;;;5024337;28;81879;-60
2022/01/19 11:09:56;;;;;;;9.55;5.72;;;-4.40;82.40;-5.10;98305.00;;;;5022615;28;82953;-58
2022/01/19 11:12:28;;;;;;;8.85;5.95;;;-4.40;82.50;-5.10;98293.00;;;;5023938;28;82376;-59
2022/01/19 11:14:54;;;;;;;10.93;6.07;;;-4.40;82.70;-5.10;98304.00;;;;5024042;28;82629;-59
2022/01/19 11:17:20;;;;;;;8.15;5.72;;;-4.50;83.40;-5.10;98294.00;;;;5023543;28;81913;-58
2022/01/19 11:19:46;;;;;;;9.20;5.47;;;-4.50;83.10;-5.20;98302.00;;;;5024238;28;82096;-58
2022/01/19 11:22:18;;;;;;;9.85;6.28;;;-4.50;83.40;-5.20;98303.00;;;;5023516;28;83672;-57
2022/01/19 11:25:13;;;;;;;9.88;5.80;;;-4.40;83.20;-5.10;98304.00;;;;5022407;28;82884;-63
2022/01/19 11:27:46;;;;;;;8.77;5.57;;;-4.40;82.50;-5.10;98289.00;;;;5021809;28;83132;-64
2022/01/19 11:30:26;;;;;;;11.20;6.30;;;-4.40;82.50;-5.20;98281.00;;;;5022119;28;82410;-61
2022/01/19 11:33:27;;;;;;;10.10;6.68;;;-4.40;82.80;-5.20;98278.00;;;;5016413;28;82184;-63
2022/01/19 11:36:01;;;;;;;9.35;5.80;;;-4.50;83.60;-5.20;98272.00;;;;5000090;28;83461;-63
2022/01/19 11:38:34;;;;;;;9.05;5.30;;;-4.50;83.20;-5.30;98272.00;;;;5022700;28;82322;-64
2022/01/19 11:41:22;;;;;;;10.10;4.90;;;-4.60;83.40;-5.40;98261.00;;;;5023804;28;82376;-64
2022/01/19 11:43:55;;;;;;;8.60;5.28;;;-4.70;83.30;-5.40;98272.00;;;;5013586;28;82497;-64
2022/01/19 11:46:33;;;;;;;7.93;4.90;;;-4.70;83.60;-5.50;98255.00;;;;5023179;28;82382;-64
2022/01/19 11:49:05;;;;;;;10.32;5.07;;;-4.80;84.00;-5.50;98263.00;;;;5022378;28;81995;-64
2022/01/19 11:51:38;;;;;;;;;;;-4.80;84.30;-5.50;98259.00;;;;5023814;28;82338;-60
2022/01/19 11:54:29;;;;;;;11.07;7.13;;;-4.80;84.90;-5.50;98265.00;;;;5022537;28;83233;-56
2022/01/19 11:57:02;;;;;;;8.15;5.00;;;-4.80;85.00;-5.50;98267.00;;;;5023286;28;82140;-57
2022/01/19 11:59:31;;;;;;;9.23;4.60;;;-4.90;84.90;-5.60;98259.00;;;;5023524;28;82038;-58
2022/01/19 12:02:26;;;;;;;8.45;5.18;;;-4.90;85.20;-5.60;98261.00;;;;5022467;28;81979;-57
2022/01/19 12:04:58;;;;;;;8.15;4.78;;;-4.90;85.10;-5.60;98248.00;;;;5023209;28;82606;-59
2022/01/19 12:07:52;;;;;;;8.23;5.05;;;-4.90;85.70;-5.60;98259.00;;;;5023593;28;82274;-58
2022/01/19 12:10:31;;;;;;;9.48;4.78;;;-5.00;86.00;-5.70;98255.00;;;;5022680;28;81893;-60
2022/01/19 12:16:16;;;;;;;8.48;4.85;;;-5.00;85.40;-5.70;98242.00;;;;5022691;28;82318;-59
2022/01/19 12:18:47;;;;;;;7.45;5.03;;;-5.00;85.80;-5.70;98242.00;;;;5006032;28;84831;-58
2022/01/19 12:21:31;;;;;;;7.80;5.10;;;-5.00;85.60;-5.70;98243.00;;;;5022553;28;83323;-59
2022/01/19 12:24:21;;;;;;;9.70;5.07;;;-5.00;86.40;-5.70;98235.00;;;;5022040;28;82188;-58
2022/01/19 12:27:06;;;;;;;8.20;4.72;;;-5.00;86.20;-5.70;98241.00;;;;5022769;28;82649;-57
2022/01/19 12:29:37;;;;;;;9.20;5.50;;;-5.00;85.90;-5.70;98247.00;;;;5020630;28;82422;-58
2022/01/19 12:32:17;;;;;;;;;;;-5.00;86.20;-5.70;98241.00;;;;5023231;28;82133;-59
2022/01/19 12:34:54;;;;;;;7.07;4.53;;;-5.00;85.90;-5.70;98234.00;;;;5023224;28;82726;-58
2022/01/19 12:37:27;;;;;;;6.82;4.40;;;-5.00;85.60;-5.70;98226.00;;;;5021546;28;83702;-58
2022/01/19 12:39:55;;;;;;;7.18;4.43;;;-4.90;85.30;-5.70;98230.00;;;;5022697;28;83558;-58
2022/01/19 12:42:39;;;;;;;7.38;4.13;;;-4.90;85.00;-5.70;98231.00;;;;5022667;28;81911;-58
2022/01/19 12:45:21;;;;;;;10.55;4.70;;;-5.00;84.50;-5.80;98226.00;;;;5022218;28;83476;-59